createdAt,value
2023-12-11T00:00:43.331Z,8.07
2023-12-11T00:01:43.396Z,8.04
2023-12-11T00:02:44.895Z,8.02
2023-12-11T00:03:43.261Z,8.02
2023-12-11T00:04:43.193Z,8.10
2023-12-11T00:05:43.212Z,8.08
2023-12-11T00:06:43.330Z,8.05
2023-12-11T00:07:43.177Z,8.04
2023-12-11T00:08:43.213Z,8.04
2023-12-11T00:09:43.234Z,8.04
2023-12-11T00:10:43.254Z,7.98
2023-12-11T00:11:43.197Z,8.00
2023-12-11T00:12:43.166Z,8.00
2023-12-11T00:13:43.125Z,7.98
2023-12-11T00:14:43.094Z,8.00
2023-12-11T00:15:43.095Z,7.98
2023-12-11T00:16:43.048Z,8.00
2023-12-11T00:17:43.121Z,7.98
2023-12-11T00:18:44.144Z,7.98
2023-12-11T00:19:43.763Z,8.01
2023-12-11T00:20:43.027Z,8.02
2023-12-11T00:21:43.112Z,8.02
2023-12-11T00:22:43.013Z,8.04
2023-12-11T00:23:43.006Z,8.08
2023-12-11T00:24:43.002Z,8.10
2023-12-11T00:25:42.978Z,8.12
2023-12-11T00:26:42.954Z,8.18
2023-12-11T00:27:42.985Z,8.19
2023-12-11T00:28:42.945Z,8.20
2023-12-11T00:29:42.996Z,8.23
2023-12-11T00:30:42.974Z,8.25
2023-12-11T00:31:42.968Z,8.28
2023-12-11T00:32:42.980Z,8.29
2023-12-11T00:33:43.060Z,8.30
2023-12-11T00:34:43.049Z,8.34
2023-12-11T00:35:42.895Z,8.37
2023-12-11T00:36:42.890Z,8.38
2023-12-11T00:37:42.835Z,8.41
2023-12-11T00:38:42.971Z,8.41
2023-12-11T00:39:43.129Z,8.40
2023-12-11T00:40:43.022Z,8.43
2023-12-11T00:41:42.787Z,8.43
2023-12-11T00:42:42.816Z,8.40
2023-12-11T00:43:45.575Z,8.37
2023-12-11T00:44:42.735Z,8.38
2023-12-11T00:45:42.829Z,8.41
2023-12-11T00:46:42.714Z,8.41
2023-12-11T00:47:42.708Z,8.40
2023-12-11T00:48:42.919Z,8.38
2023-12-11T00:49:42.756Z,8.37
2023-12-11T00:50:42.678Z,8.37
2023-12-11T00:51:42.704Z,8.34
2023-12-11T00:52:42.675Z,8.34
2023-12-11T00:53:42.681Z,8.38
2023-12-11T00:54:42.679Z,8.41
2023-12-11T00:55:43.506Z,8.43
2023-12-11T00:56:42.654Z,8.43
2023-12-11T00:57:42.624Z,8.44
2023-12-11T00:58:42.699Z,8.44
2023-12-11T00:59:43.422Z,8.48
2023-12-11T01:00:42.615Z,8.55
2023-12-11T01:01:42.653Z,8.56
2023-12-11T01:02:42.605Z,8.62
2023-12-11T01:03:42.643Z,8.61
2023-12-11T01:04:42.732Z,8.61
2023-12-11T01:05:42.586Z,8.58
2023-12-11T01:06:42.553Z,8.55
2023-12-11T01:07:42.497Z,8.53
2023-12-11T01:08:42.478Z,8.52
2023-12-11T01:09:42.584Z,8.50
2023-12-11T01:10:42.474Z,8.52
2023-12-11T01:11:42.494Z,8.50
2023-12-11T01:12:42.464Z,8.53
2023-12-11T01:13:42.496Z,8.53
2023-12-11T01:14:42.508Z,8.55
2023-12-11T01:15:42.463Z,8.55
2023-12-11T01:16:42.407Z,8.53
2023-12-11T01:17:42.423Z,8.53
2023-12-11T01:18:42.446Z,8.50
2023-12-11T01:19:42.647Z,8.48
2023-12-11T01:20:43.158Z,8.47
2023-12-11T01:21:42.398Z,8.47
2023-12-11T01:22:42.408Z,8.47
2023-12-11T01:23:42.311Z,8.48
2023-12-11T01:24:42.474Z,8.52
2023-12-11T01:25:42.307Z,8.50
2023-12-11T01:26:42.317Z,8.55
2023-12-11T01:27:42.323Z,8.56
2023-12-11T01:28:42.261Z,8.56
2023-12-11T01:29:42.256Z,8.56
2023-12-11T01:30:42.369Z,8.56
2023-12-11T01:31:42.222Z,8.58
2023-12-11T01:32:42.265Z,8.56
2023-12-11T01:33:42.316Z,8.55
2023-12-11T01:34:42.276Z,8.52
2023-12-11T01:35:42.314Z,8.52
2023-12-11T01:36:42.226Z,8.50
2023-12-11T01:37:42.152Z,8.45
2023-12-11T01:38:42.153Z,8.43
2023-12-11T01:39:42.176Z,8.41
2023-12-11T01:40:43.045Z,8.41
2023-12-11T01:41:42.189Z,8.40
2023-12-11T01:42:42.204Z,8.38
2023-12-11T01:43:42.221Z,8.36
2023-12-11T01:44:42.146Z,8.33
2023-12-11T01:45:42.133Z,8.29
2023-12-11T01:46:42.239Z,8.28
2023-12-11T01:47:42.132Z,8.25
2023-12-11T01:49:42.059Z,8.26
2023-12-11T01:50:42.014Z,8.23
2023-12-11T01:51:42.008Z,8.23
2023-12-11T01:52:42.030Z,8.22
2023-12-11T01:53:41.989Z,8.20
2023-12-11T01:54:41.992Z,8.19
2023-12-11T01:55:41.962Z,8.19
2023-12-11T01:56:41.945Z,8.20
2023-12-11T01:57:42.068Z,8.20
2023-12-11T01:58:41.937Z,8.20
2023-12-11T01:59:42.370Z,8.20
2023-12-11T02:00:42.706Z,8.20
2023-12-11T02:01:42.889Z,8.20
2023-12-11T02:02:41.907Z,8.22
2023-12-11T02:03:42.010Z,8.25
2023-12-11T02:04:42.094Z,8.26
2023-12-11T02:05:41.958Z,8.28
2023-12-11T02:06:41.993Z,8.25
2023-12-11T02:07:41.874Z,8.28
2023-12-11T02:08:41.838Z,8.28
2023-12-11T02:09:41.960Z,8.29
2023-12-11T02:10:41.840Z,8.28
2023-12-11T02:11:43.860Z,8.29
2023-12-11T02:12:41.901Z,8.29
2023-12-11T02:13:41.841Z,8.26
2023-12-11T02:14:41.854Z,8.28
2023-12-11T02:15:41.883Z,8.25
2023-12-11T02:16:41.901Z,8.25
2023-12-11T02:17:41.870Z,8.23
2023-12-11T02:18:41.837Z,8.23
2023-12-11T02:19:41.949Z,8.22
2023-12-11T02:20:42.533Z,8.22
2023-12-11T02:21:41.747Z,8.22
2023-12-11T02:22:41.762Z,8.23
2023-12-11T02:23:41.693Z,8.23
2023-12-11T02:24:41.656Z,8.25
2023-12-11T02:25:41.634Z,8.25
2023-12-11T02:26:41.603Z,8.25
2023-12-11T02:27:41.671Z,8.28
2023-12-11T02:28:41.592Z,8.26
2023-12-11T02:29:41.607Z,8.28
2023-12-11T02:30:41.625Z,8.29
2023-12-11T02:31:41.576Z,8.30
2023-12-11T02:32:41.771Z,8.33
2023-12-11T02:33:41.708Z,8.33
2023-12-11T02:34:41.687Z,8.34
2023-12-11T02:35:41.594Z,8.33
2023-12-11T02:36:41.548Z,8.34
2023-12-11T02:37:41.525Z,8.34
2023-12-11T02:38:42.398Z,8.33
2023-12-11T02:39:41.524Z,8.30
2023-12-11T02:40:41.664Z,8.30
2023-12-11T02:41:42.298Z,8.33
2023-12-11T02:42:42.257Z,8.33
2023-12-11T02:43:41.472Z,8.33
2023-12-11T02:44:41.425Z,8.36
2023-12-11T02:45:41.460Z,8.36
2023-12-11T02:46:41.387Z,8.34
2023-12-11T02:47:41.527Z,8.37
2023-12-11T02:48:41.643Z,8.36
2023-12-11T02:49:41.384Z,8.34
2023-12-11T02:50:41.408Z,8.33
2023-12-11T02:51:41.370Z,8.33
2023-12-11T02:52:41.409Z,8.33
2023-12-11T02:53:41.331Z,8.33
2023-12-11T02:54:41.326Z,8.34
2023-12-11T02:55:41.296Z,8.36
2023-12-11T02:56:41.327Z,8.37
2023-12-11T02:57:41.332Z,8.38
2023-12-11T02:58:41.374Z,8.40
2023-12-11T02:59:41.249Z,8.41
2023-12-11T03:00:41.321Z,8.41
2023-12-11T03:01:41.462Z,8.41
2023-12-11T03:02:41.370Z,8.40
2023-12-11T03:03:41.267Z,8.38
2023-12-11T03:04:41.266Z,8.40
2023-12-11T03:05:41.211Z,8.45
2023-12-11T03:06:41.259Z,8.47
2023-12-11T03:07:41.398Z,8.48
2023-12-11T03:08:41.149Z,8.47
2023-12-11T03:09:41.145Z,8.44
2023-12-11T03:10:41.163Z,8.43
2023-12-11T03:11:41.166Z,8.41
2023-12-11T03:12:41.133Z,8.38
2023-12-11T03:13:41.087Z,8.38
2023-12-11T03:14:41.153Z,8.37
2023-12-11T03:15:41.102Z,8.34
2023-12-11T03:16:41.054Z,8.33
2023-12-11T03:17:41.140Z,8.30
2023-12-11T03:18:41.179Z,8.29
2023-12-11T03:19:41.130Z,8.28
2023-12-11T03:20:41.036Z,8.25
2023-12-11T03:21:41.063Z,8.23
2023-12-11T03:22:41.036Z,8.23
2023-12-11T03:23:41.023Z,8.25
2023-12-11T03:24:41.015Z,8.23
2023-12-11T03:25:40.973Z,8.20
2023-12-11T03:26:40.994Z,8.22
2023-12-11T03:27:40.984Z,8.20
2023-12-11T03:28:41.066Z,8.19
2023-12-11T03:29:40.982Z,8.19
2023-12-11T03:30:40.950Z,8.18
2023-12-11T03:31:40.892Z,8.18
2023-12-11T03:32:40.925Z,8.19
2023-12-11T03:33:40.949Z,8.18
2023-12-11T03:34:41.000Z,8.19
2023-12-11T03:35:40.897Z,8.18
2023-12-11T03:36:40.888Z,8.18
2023-12-11T03:37:40.839Z,8.15
2023-12-11T03:38:40.820Z,8.15
2023-12-11T03:39:43.328Z,8.15
2023-12-11T03:40:40.803Z,8.12
2023-12-11T03:41:40.840Z,8.11
2023-12-11T03:42:40.801Z,8.10
2023-12-11T03:43:40.782Z,8.10
2023-12-11T03:44:40.812Z,8.07
2023-12-11T03:45:40.769Z,8.05
2023-12-11T03:46:40.736Z,8.04
2023-12-11T03:47:40.745Z,8.01
2023-12-11T03:48:40.796Z,7.97
2023-12-11T03:49:40.876Z,7.93
2023-12-11T03:50:40.747Z,7.90
2023-12-11T03:51:40.768Z,7.87
2023-12-11T03:52:40.706Z,7.86
2023-12-11T03:53:40.651Z,7.85
2023-12-11T03:54:40.700Z,7.83
2023-12-11T03:55:40.629Z,7.82
2023-12-11T03:56:40.612Z,7.82
2023-12-11T03:57:40.621Z,7.83
2023-12-11T03:58:40.622Z,7.83
2023-12-11T03:59:40.609Z,7.83
2023-12-11T04:00:40.644Z,7.85
2023-12-11T04:01:40.632Z,7.85
2023-12-11T04:02:41.465Z,7.86
2023-12-11T04:03:40.669Z,7.87
2023-12-11T04:04:40.729Z,7.86
2023-12-11T04:05:40.623Z,7.86
2023-12-11T04:06:40.518Z,7.86
2023-12-11T04:07:40.488Z,7.87
2023-12-11T04:08:40.500Z,7.89
2023-12-11T04:09:40.498Z,7.89
2023-12-11T04:10:40.482Z,7.90
2023-12-11T04:11:40.449Z,7.92
2023-12-11T04:12:40.457Z,7.89
2023-12-11T04:13:40.425Z,7.90
2023-12-11T04:14:40.406Z,7.92
2023-12-11T04:15:40.460Z,7.92
2023-12-11T04:16:40.390Z,7.90
2023-12-11T04:17:40.421Z,7.90
2023-12-11T04:18:41.245Z,7.92
2023-12-11T04:19:40.440Z,7.90
2023-12-11T04:20:40.401Z,7.89
2023-12-11T04:21:41.161Z,7.89
2023-12-11T04:22:40.385Z,7.89
2023-12-11T04:23:41.233Z,7.89
2023-12-11T04:24:41.178Z,7.89
2023-12-11T04:25:40.317Z,7.90
2023-12-11T04:26:40.312Z,7.89
2023-12-11T04:27:40.308Z,7.87
2023-12-11T04:28:40.262Z,7.86
2023-12-11T04:29:40.423Z,7.83
2023-12-11T04:30:40.353Z,7.80
2023-12-11T04:31:40.234Z,7.80
2023-12-11T04:32:40.396Z,7.77
2023-12-11T04:33:41.303Z,7.75
2023-12-11T04:34:40.224Z,7.74
2023-12-11T04:35:40.557Z,7.71
2023-12-11T04:36:40.203Z,7.71
2023-12-11T04:37:40.159Z,7.72
2023-12-11T04:38:40.131Z,7.72
2023-12-11T04:39:40.217Z,7.74
2023-12-11T04:40:40.172Z,7.72
2023-12-11T04:41:40.101Z,7.75
2023-12-11T04:42:40.154Z,7.74
2023-12-11T04:43:40.081Z,7.77
2023-12-11T04:44:40.995Z,7.79
2023-12-11T04:45:40.248Z,7.79
2023-12-11T04:46:40.052Z,7.82
2023-12-11T04:47:40.077Z,7.83
2023-12-11T04:48:40.247Z,7.85
2023-12-11T04:49:40.328Z,7.86
2023-12-11T04:50:40.014Z,7.87
2023-12-11T04:51:40.026Z,7.87
2023-12-11T04:52:40.048Z,7.89
2023-12-11T04:53:40.094Z,7.90
2023-12-11T04:54:40.034Z,7.90
2023-12-11T04:55:40.146Z,7.90
2023-12-11T04:56:39.995Z,7.92
2023-12-11T04:57:40.007Z,7.93
2023-12-11T04:58:39.995Z,7.93
2023-12-11T04:59:42.463Z,7.92
2023-12-11T05:00:39.928Z,7.90
2023-12-11T05:01:39.941Z,7.92
2023-12-11T05:02:39.953Z,7.89
2023-12-11T05:03:39.898Z,7.87
2023-12-11T05:04:40.609Z,7.86
2023-12-11T05:05:40.768Z,7.83
2023-12-11T05:06:39.861Z,7.83
2023-12-11T05:07:39.832Z,7.85
2023-12-11T05:08:39.806Z,7.86
2023-12-11T05:09:40.194Z,7.87
2023-12-11T05:10:39.767Z,7.89
2023-12-11T05:11:39.805Z,7.89
2023-12-11T05:12:39.882Z,7.92
2023-12-11T05:13:39.742Z,7.95
2023-12-11T05:14:39.748Z,7.95
2023-12-11T05:15:39.775Z,7.95
2023-12-11T05:16:39.704Z,7.93
2023-12-11T05:17:39.724Z,7.93
2023-12-11T05:18:39.774Z,7.93
2023-12-11T05:19:39.931Z,7.95
2023-12-11T05:20:40.516Z,7.95
2023-12-11T05:21:39.692Z,7.93
2023-12-11T05:22:39.655Z,7.93
2023-12-11T05:23:39.851Z,7.95
2023-12-11T05:24:39.647Z,7.97
2023-12-11T05:25:40.397Z,7.98
2023-12-11T05:26:39.606Z,7.98
2023-12-11T05:27:39.606Z,8.00
2023-12-11T05:28:39.611Z,8.02
2023-12-11T05:29:39.596Z,8.04
2023-12-11T05:30:39.632Z,8.02
2023-12-11T05:31:39.557Z,8.04
2023-12-11T05:32:39.665Z,8.05
2023-12-11T05:33:39.718Z,8.04
2023-12-11T05:34:39.621Z,8.01
2023-12-11T05:35:39.557Z,8.02
2023-12-11T05:36:39.592Z,8.02
2023-12-11T05:37:39.463Z,8.02
2023-12-11T05:38:39.486Z,8.04
2023-12-11T05:39:41.587Z,8.04
2023-12-11T05:40:40.488Z,8.04
2023-12-11T05:41:39.478Z,8.04
2023-12-11T05:42:39.461Z,8.04
2023-12-11T05:43:39.424Z,8.05
2023-12-11T05:44:39.621Z,8.05
2023-12-11T05:45:39.429Z,8.07
2023-12-11T05:46:39.425Z,8.05
2023-12-11T05:47:39.442Z,8.05
2023-12-11T05:48:39.713Z,8.05
2023-12-11T05:49:39.402Z,8.05
2023-12-11T05:50:41.355Z,8.05
2023-12-11T05:51:39.426Z,8.05
2023-12-11T05:52:39.339Z,8.04
2023-12-11T05:53:39.306Z,8.02
2023-12-11T05:54:39.306Z,8.02
2023-12-11T05:55:39.267Z,8.01
2023-12-11T05:56:39.307Z,8.00
2023-12-11T05:57:39.301Z,7.98
2023-12-11T05:58:39.282Z,7.98
2023-12-11T05:59:39.316Z,7.97
2023-12-11T06:00:39.287Z,7.97
2023-12-11T06:01:39.422Z,7.97
2023-12-11T06:02:39.250Z,7.95
2023-12-11T06:03:39.205Z,7.93
2023-12-11T06:04:39.990Z,7.95
2023-12-11T06:05:40.210Z,7.93
2023-12-11T06:06:39.223Z,7.92
2023-12-11T06:07:39.344Z,7.93
2023-12-11T06:08:39.139Z,7.92
2023-12-11T06:09:39.188Z,7.92
2023-12-11T06:10:39.130Z,7.92
2023-12-11T06:11:39.125Z,7.92
2023-12-11T06:12:39.121Z,7.93
2023-12-11T06:13:39.073Z,7.92
2023-12-11T06:14:39.082Z,7.92
2023-12-11T06:15:39.166Z,7.89
2023-12-11T06:16:39.047Z,7.90
2023-12-11T06:17:39.165Z,7.92
2023-12-11T06:18:39.189Z,7.90
2023-12-11T06:19:39.057Z,7.87
2023-12-11T06:20:39.017Z,7.89
2023-12-11T06:21:39.005Z,7.86
2023-12-11T06:22:39.000Z,7.87
2023-12-11T06:23:38.958Z,7.89
2023-12-11T06:24:38.971Z,7.87
2023-12-11T06:25:39.049Z,7.86
2023-12-11T06:26:39.758Z,7.86
2023-12-11T06:27:38.979Z,7.85
2023-12-11T06:28:38.942Z,7.86
2023-12-11T06:29:38.945Z,7.87
2023-12-11T06:30:38.903Z,7.86
2023-12-11T06:31:39.676Z,7.85
2023-12-11T06:32:38.953Z,7.86
2023-12-11T06:33:38.976Z,7.87
2023-12-11T06:34:38.890Z,7.87
2023-12-11T06:35:38.855Z,7.87
2023-12-11T06:36:38.879Z,7.86
2023-12-11T06:37:38.811Z,7.86
2023-12-11T06:38:38.830Z,7.87
2023-12-11T06:39:38.981Z,7.86
2023-12-11T06:40:38.822Z,7.89
2023-12-11T06:41:38.794Z,7.89
2023-12-11T06:42:38.911Z,7.86
2023-12-11T06:43:38.772Z,7.87
2023-12-11T06:44:38.746Z,7.86
2023-12-11T06:45:39.393Z,7.85
2023-12-11T06:46:39.522Z,7.87
2023-12-11T06:47:38.779Z,7.87
2023-12-11T06:48:39.005Z,7.89
2023-12-11T06:49:39.007Z,7.90
2023-12-11T06:50:38.680Z,7.93
2023-12-11T06:51:38.779Z,7.93
2023-12-11T06:52:38.717Z,7.97
2023-12-11T06:53:38.852Z,7.98
2023-12-11T06:54:38.663Z,8.00
2023-12-11T06:55:38.634Z,8.01
2023-12-11T06:56:38.611Z,8.02
2023-12-11T06:57:38.632Z,8.00
2023-12-11T06:58:38.580Z,8.01
2023-12-11T06:59:38.562Z,8.02
2023-12-11T07:00:38.732Z,8.02
2023-12-11T07:01:38.689Z,8.02
2023-12-11T07:02:38.641Z,8.04
2023-12-11T07:03:38.663Z,8.07
2023-12-11T07:04:38.864Z,8.10
2023-12-11T07:05:38.705Z,8.12
2023-12-11T07:06:39.452Z,8.16
2023-12-11T07:07:38.584Z,8.16
2023-12-11T07:08:38.543Z,8.18
2023-12-11T07:09:38.574Z,8.16
2023-12-11T07:10:39.474Z,8.19
2023-12-11T07:11:38.497Z,8.19
2023-12-11T07:12:38.531Z,8.19
2023-12-11T07:13:38.515Z,8.18
2023-12-11T07:14:38.434Z,8.22
2023-12-11T07:15:38.431Z,8.20
2023-12-11T07:16:38.389Z,8.23
2023-12-11T07:17:38.781Z,8.20
2023-12-11T07:18:38.533Z,8.22
2023-12-11T07:19:38.523Z,8.20
2023-12-11T07:20:38.393Z,8.20
2023-12-11T07:21:38.367Z,8.19
2023-12-11T07:22:38.341Z,8.22
2023-12-11T07:23:38.319Z,8.20
2023-12-11T07:24:38.408Z,8.19
2023-12-11T07:25:38.395Z,8.18
2023-12-11T07:26:39.006Z,8.18
2023-12-11T07:27:38.311Z,8.18
2023-12-11T07:28:39.094Z,8.19
2023-12-11T07:29:38.269Z,8.22
2023-12-11T07:30:38.273Z,8.22
2023-12-11T07:31:38.210Z,8.20
2023-12-11T07:32:38.440Z,8.20
2023-12-11T07:33:38.469Z,8.22
2023-12-11T07:34:38.287Z,8.20
2023-12-11T07:35:38.217Z,8.22
2023-12-11T07:36:38.187Z,8.22
2023-12-11T07:37:38.146Z,8.23
2023-12-11T07:38:38.117Z,8.20
2023-12-11T07:39:38.134Z,8.22
2023-12-11T07:40:38.166Z,8.20
2023-12-11T07:41:38.857Z,8.20
2023-12-11T07:42:38.179Z,8.22
2023-12-11T07:43:38.067Z,8.23
2023-12-11T07:44:38.806Z,8.23
2023-12-11T07:45:38.128Z,8.23
2023-12-11T07:46:39.367Z,8.22
2023-12-11T07:47:38.934Z,8.23
2023-12-11T07:48:39.027Z,8.23
2023-12-11T07:49:38.100Z,8.22
2023-12-11T07:50:38.045Z,8.22
2023-12-11T07:51:38.035Z,8.23
2023-12-11T07:52:38.048Z,8.26
2023-12-11T07:53:38.053Z,8.28
2023-12-11T07:54:38.039Z,8.28
2023-12-11T07:55:37.958Z,8.28
2023-12-11T07:56:37.944Z,8.29
2023-12-11T07:57:37.929Z,8.33
2023-12-11T07:58:37.935Z,8.34
2023-12-11T07:59:37.888Z,8.37
2023-12-11T08:00:37.921Z,8.36
2023-12-11T08:01:37.929Z,8.37
2023-12-11T08:02:37.864Z,8.40
2023-12-11T08:03:37.938Z,8.41
2023-12-11T08:04:37.927Z,8.44
2023-12-11T08:05:37.819Z,8.41
2023-12-11T08:06:37.824Z,8.43
2023-12-11T08:07:37.926Z,8.44
2023-12-11T08:08:37.807Z,8.45
2023-12-11T08:09:38.760Z,8.45
2023-12-11T08:10:37.930Z,8.47
2023-12-11T08:11:38.032Z,8.47
2023-12-11T08:12:37.770Z,8.45
2023-12-11T08:13:37.734Z,8.44
2023-12-11T08:14:39.470Z,8.47
2023-12-11T08:15:37.790Z,8.48
2023-12-11T08:16:37.958Z,8.52
2023-12-11T08:17:37.765Z,8.52
2023-12-11T08:18:37.780Z,8.52
2023-12-11T08:19:37.854Z,8.53
2023-12-11T08:20:37.653Z,8.50
2023-12-11T08:21:37.654Z,8.50
2023-12-11T08:22:37.630Z,8.48
2023-12-11T08:23:37.638Z,8.48
2023-12-11T08:24:37.675Z,8.47
2023-12-11T08:25:37.624Z,8.44
2023-12-11T08:26:37.671Z,8.40
2023-12-11T08:27:37.672Z,8.40
2023-12-11T08:28:38.468Z,8.40
2023-12-11T08:29:38.361Z,8.40
2023-12-11T08:30:37.618Z,8.38
2023-12-11T08:31:37.573Z,8.37
2023-12-11T08:32:38.034Z,8.36
2023-12-11T08:33:37.553Z,8.37
2023-12-11T08:34:37.701Z,8.36
2023-12-11T08:35:37.487Z,8.34
2023-12-11T08:36:37.531Z,8.33
2023-12-11T08:37:37.536Z,8.30
2023-12-11T08:38:37.496Z,8.30
2023-12-11T08:39:38.421Z,8.33
2023-12-11T08:40:37.438Z,8.34
2023-12-11T08:41:37.469Z,8.33
2023-12-11T08:42:40.825Z,8.30
2023-12-11T08:43:37.437Z,8.33
2023-12-11T08:44:37.439Z,8.30
2023-12-11T08:45:37.468Z,8.26
2023-12-11T08:46:37.370Z,8.26
2023-12-11T08:47:39.697Z,8.23
2023-12-11T08:48:37.585Z,8.22
2023-12-11T08:49:37.580Z,8.20
2023-12-11T08:50:37.468Z,8.22
2023-12-11T08:51:37.353Z,8.19
2023-12-11T08:52:37.292Z,8.20
2023-12-11T08:53:37.298Z,8.19
2023-12-11T08:54:37.346Z,8.20
2023-12-11T08:55:37.261Z,8.18
2023-12-11T08:56:37.271Z,8.18
2023-12-11T08:57:37.292Z,8.16
2023-12-11T08:58:37.223Z,8.18
2023-12-11T08:59:37.241Z,8.18
2023-12-11T09:00:37.291Z,8.16
2023-12-11T09:01:37.300Z,8.18
2023-12-11T09:02:37.243Z,8.18
2023-12-11T09:03:37.232Z,8.18
2023-12-11T09:04:37.359Z,8.16
2023-12-11T09:05:37.189Z,8.16
2023-12-11T09:06:37.698Z,8.16
2023-12-11T09:07:37.130Z,8.18
2023-12-11T09:08:37.136Z,8.20
2023-12-11T09:09:37.733Z,8.23
2023-12-11T09:10:37.606Z,8.25
2023-12-11T09:11:37.094Z,8.29
2023-12-11T09:12:37.133Z,8.33
2023-12-11T09:13:37.124Z,8.33
2023-12-11T09:14:37.050Z,8.34
2023-12-11T09:15:37.056Z,8.34
2023-12-11T09:16:37.162Z,8.38
2023-12-11T09:17:37.399Z,8.41
2023-12-11T09:18:37.269Z,8.44
2023-12-11T09:19:44.628Z,8.45
2023-12-11T09:20:38.098Z,8.47
2023-12-11T09:21:37.979Z,8.52
2023-12-11T09:22:37.053Z,8.53
2023-12-11T09:23:37.009Z,8.55
2023-12-11T09:24:37.789Z,8.58
2023-12-11T09:25:37.122Z,8.61
2023-12-11T09:26:37.794Z,8.66
2023-12-11T09:27:37.950Z,8.70
2023-12-11T09:28:44.185Z,8.73
2023-12-11T09:29:37.902Z,8.73
2023-12-11T09:30:37.774Z,8.74
2023-12-11T09:31:37.794Z,8.76
2023-12-11T09:32:37.043Z,8.80
2023-12-11T09:33:36.969Z,8.77
2023-12-11T09:34:37.009Z,8.81
2023-12-11T09:35:37.046Z,8.81
2023-12-11T09:36:36.913Z,8.83
2023-12-11T09:37:36.932Z,8.83
2023-12-11T09:38:36.823Z,8.86
2023-12-11T09:39:36.831Z,8.86
2023-12-11T09:40:36.795Z,8.91
2023-12-11T09:41:36.833Z,8.92
2023-12-11T09:42:36.815Z,8.94
2023-12-11T09:43:36.750Z,8.94
2023-12-11T09:44:36.746Z,8.95
2023-12-11T09:45:36.747Z,8.96
2023-12-11T09:46:36.752Z,8.99
2023-12-11T09:47:36.889Z,9.01
2023-12-11T09:48:36.758Z,9.04
2023-12-11T09:49:36.753Z,8.99
2023-12-11T09:50:37.526Z,9.04
2023-12-11T09:51:36.766Z,9.08
2023-12-11T09:52:36.685Z,9.11
2023-12-11T09:53:36.661Z,9.14
2023-12-11T09:54:36.658Z,9.20
2023-12-11T09:55:36.668Z,9.24
2023-12-11T09:56:36.623Z,9.23
2023-12-11T09:57:36.568Z,9.23
2023-12-11T09:58:36.619Z,9.26
2023-12-11T09:59:36.620Z,9.24
2023-12-11T10:00:36.638Z,9.26
2023-12-11T10:01:36.688Z,9.28
2023-12-11T10:02:36.616Z,9.29
2023-12-11T10:03:36.725Z,9.26
2023-12-11T10:04:36.544Z,9.31
2023-12-11T10:05:36.570Z,9.32
2023-12-11T10:06:36.487Z,9.31
2023-12-11T10:07:36.502Z,9.35
2023-12-11T10:08:36.460Z,9.33
2023-12-11T10:09:36.485Z,9.33
2023-12-11T10:10:36.451Z,9.36
2023-12-11T10:11:37.259Z,9.35
2023-12-11T10:12:36.418Z,9.39
2023-12-11T10:13:36.426Z,9.40
2023-12-11T10:14:36.484Z,9.42
2023-12-11T10:15:36.444Z,9.46
2023-12-11T10:16:36.490Z,9.47
2023-12-11T10:17:37.484Z,9.50
2023-12-11T10:18:36.466Z,9.47
2023-12-11T10:19:36.527Z,9.47
2023-12-11T10:20:36.471Z,9.43
2023-12-11T10:21:36.318Z,9.43
2023-12-11T10:22:36.307Z,9.42
2023-12-11T10:23:36.346Z,9.42
2023-12-11T10:24:36.319Z,9.39
2023-12-11T10:25:36.334Z,9.38
2023-12-11T10:26:36.335Z,9.38
2023-12-11T10:27:36.313Z,9.40
2023-12-11T10:28:37.290Z,9.43
2023-12-11T10:29:36.234Z,9.48
2023-12-11T10:30:36.262Z,9.53
2023-12-11T10:31:37.072Z,9.53
2023-12-11T10:32:36.254Z,9.51
2023-12-11T10:33:36.409Z,9.54
2023-12-11T10:34:36.285Z,9.54
2023-12-11T10:35:36.262Z,9.53
2023-12-11T10:36:36.152Z,9.53
2023-12-11T10:37:36.173Z,9.51
2023-12-11T10:38:36.162Z,9.51
2023-12-11T10:39:36.153Z,9.54
2023-12-11T10:40:36.103Z,9.56
2023-12-11T10:41:36.109Z,9.61
2023-12-11T10:42:36.083Z,9.66
2023-12-11T10:43:50.553Z,9.65
2023-12-11T10:44:46.719Z,9.65
2023-12-11T10:45:37.069Z,9.65
2023-12-11T10:46:36.208Z,9.68
2023-12-11T10:47:36.313Z,9.65
2023-12-11T10:48:36.146Z,9.61
2023-12-11T10:49:36.217Z,9.57
2023-12-11T10:50:36.010Z,9.60
2023-12-11T10:51:36.209Z,9.61
2023-12-11T10:52:36.744Z,9.57
2023-12-11T10:53:36.071Z,9.64
2023-12-11T10:54:35.980Z,9.60
2023-12-11T10:55:36.166Z,9.56
2023-12-11T10:56:36.070Z,9.57
2023-12-11T10:57:36.383Z,9.60
2023-12-11T10:58:35.952Z,9.66
2023-12-11T10:59:35.931Z,9.68
2023-12-11T11:00:35.925Z,9.68
2023-12-11T11:01:35.955Z,9.68
2023-12-11T11:02:35.933Z,9.71
2023-12-11T11:03:35.873Z,9.68
2023-12-11T11:04:35.853Z,9.66
2023-12-11T11:05:35.952Z,9.61
2023-12-11T11:06:36.659Z,9.60
2023-12-11T11:07:36.193Z,9.57
2023-12-11T11:08:35.856Z,9.54
2023-12-11T11:09:35.792Z,9.51
2023-12-11T11:10:35.776Z,9.48
2023-12-11T11:11:35.803Z,9.43
2023-12-11T11:12:35.780Z,9.42
2023-12-11T11:13:36.008Z,9.38
2023-12-11T11:14:35.750Z,9.35
2023-12-11T11:15:35.743Z,9.31
2023-12-11T11:16:35.850Z,9.28
2023-12-11T11:17:35.943Z,9.20
2023-12-11T11:18:35.755Z,9.18
2023-12-11T11:19:35.748Z,9.14
2023-12-11T11:20:35.758Z,9.11
2023-12-11T11:21:35.724Z,9.05
2023-12-11T11:22:40.610Z,9.01
2023-12-11T11:23:36.649Z,8.98
2023-12-11T11:24:35.617Z,8.95
2023-12-11T11:25:35.723Z,8.95
2023-12-11T11:26:35.878Z,8.94
2023-12-11T11:27:35.613Z,8.89
2023-12-11T11:28:35.651Z,8.92
2023-12-11T11:29:35.641Z,8.91
2023-12-11T11:30:35.589Z,8.89
2023-12-11T11:31:35.844Z,8.91
2023-12-11T11:32:35.614Z,8.89
2023-12-11T11:33:36.354Z,8.86
2023-12-11T11:34:35.576Z,8.80
2023-12-11T11:35:35.577Z,8.76
2023-12-11T11:36:35.557Z,8.76
2023-12-11T11:37:35.507Z,8.71
2023-12-11T11:38:35.520Z,8.71
2023-12-11T11:39:37.743Z,8.68
2023-12-11T11:40:35.591Z,8.65
2023-12-11T11:41:35.507Z,8.59
2023-12-11T11:42:35.424Z,8.56
2023-12-11T11:43:35.454Z,8.55
2023-12-11T11:44:35.437Z,8.56
2023-12-11T11:45:35.453Z,8.56
2023-12-11T11:46:35.380Z,8.55
2023-12-11T11:47:35.794Z,8.53
2023-12-11T11:48:35.552Z,8.56
2023-12-11T11:49:35.680Z,8.55
2023-12-11T11:50:35.406Z,8.58
2023-12-11T11:51:35.411Z,8.55
2023-12-11T11:52:35.386Z,8.56
2023-12-11T11:53:36.267Z,8.55
2023-12-11T11:54:35.417Z,8.56
2023-12-11T11:55:35.370Z,8.59
2023-12-11T11:56:35.285Z,8.55
2023-12-11T11:57:35.267Z,8.56
2023-12-11T11:58:35.241Z,8.56
2023-12-11T11:59:35.279Z,8.55
2023-12-11T12:00:35.269Z,8.55
2023-12-11T12:01:36.302Z,8.55
2023-12-11T12:02:35.242Z,8.56
2023-12-11T12:03:35.267Z,8.56
2023-12-11T12:04:35.323Z,8.55
2023-12-11T12:05:35.201Z,8.56
2023-12-11T12:06:36.017Z,8.59
2023-12-11T12:07:35.422Z,8.59
2023-12-11T12:08:35.138Z,8.61
2023-12-11T12:09:35.153Z,8.59
2023-12-11T12:10:35.143Z,8.59
2023-12-11T12:11:35.238Z,8.61
2023-12-11T12:12:35.206Z,8.62
2023-12-11T12:13:35.283Z,8.63
2023-12-11T12:14:35.551Z,8.63
2023-12-11T12:15:35.611Z,8.66
2023-12-11T12:16:35.627Z,8.68
2023-12-11T12:17:36.068Z,8.68
2023-12-11T12:18:35.761Z,8.68
2023-12-11T12:19:35.354Z,8.70
2023-12-11T12:20:35.068Z,8.70
2023-12-11T12:21:35.014Z,8.70
2023-12-11T12:22:34.996Z,8.73
2023-12-11T12:23:34.967Z,8.74
2023-12-11T12:24:35.004Z,8.73
2023-12-11T12:25:35.061Z,8.71
2023-12-11T12:26:34.955Z,8.70
2023-12-11T12:27:34.954Z,8.68
2023-12-11T12:28:35.202Z,8.68
2023-12-11T12:29:34.935Z,8.71
2023-12-11T12:30:34.956Z,8.73
2023-12-11T12:31:34.912Z,8.73
2023-12-11T12:32:34.935Z,8.71
2023-12-11T12:33:34.889Z,8.65
2023-12-11T12:34:35.963Z,8.65
2023-12-11T12:35:34.894Z,8.62
2023-12-11T12:36:34.943Z,8.62
2023-12-11T12:37:35.102Z,8.59
2023-12-11T12:38:34.902Z,8.56
2023-12-11T12:39:34.816Z,8.59
2023-12-11T12:40:34.815Z,8.55
2023-12-11T12:41:34.920Z,8.56
2023-12-11T12:42:34.783Z,8.58
2023-12-11T12:43:34.751Z,8.56
2023-12-11T12:44:34.796Z,8.56
2023-12-11T12:45:36.721Z,8.53
2023-12-11T12:46:35.185Z,8.55
2023-12-11T12:47:35.008Z,8.58
2023-12-11T12:48:34.743Z,8.56
2023-12-11T12:49:34.914Z,8.50
2023-12-11T12:50:34.709Z,8.47
2023-12-11T12:51:34.664Z,8.45
2023-12-11T12:52:34.917Z,8.40
2023-12-11T12:53:34.910Z,8.37
2023-12-11T12:54:35.624Z,8.41
2023-12-11T12:55:35.499Z,8.38
2023-12-11T12:56:35.359Z,8.41
2023-12-11T12:57:34.582Z,8.40
2023-12-11T12:58:34.658Z,8.36
2023-12-11T12:59:34.565Z,8.34
2023-12-11T13:00:34.689Z,8.33
2023-12-11T13:01:34.597Z,8.33
2023-12-11T13:02:34.561Z,8.33
2023-12-11T13:03:34.571Z,8.38
2023-12-11T13:04:34.663Z,8.44
2023-12-11T13:05:34.581Z,8.45
2023-12-11T13:06:34.751Z,8.45
2023-12-11T13:07:34.805Z,8.47
2023-12-11T13:08:34.534Z,8.50
2023-12-11T13:09:34.488Z,8.53
2023-12-11T13:10:34.485Z,8.56
2023-12-11T13:11:34.504Z,8.58
2023-12-11T13:12:34.431Z,8.58
2023-12-11T13:13:34.511Z,8.62
2023-12-11T13:14:34.483Z,8.59
2023-12-11T13:15:35.210Z,8.62
2023-12-11T13:16:35.267Z,8.62
2023-12-11T13:17:34.921Z,8.63
2023-12-11T13:18:34.457Z,8.63
2023-12-11T13:19:34.454Z,8.63